createdAt,value
2022-12-17T00:01:14.212Z,18.00
2022-12-17T00:04:04.025Z,16.92
2022-12-17T00:06:52.978Z,20.48
2022-12-17T00:09:50.117Z,25.20
2022-12-17T00:12:39.414Z,25.67
2022-12-17T00:15:28.700Z,25.75
2022-12-17T00:18:27.954Z,23.90
2022-12-17T00:21:19.202Z,24.20
2022-12-17T00:24:08.972Z,23.75
2022-12-17T00:26:58.728Z,24.05
2022-12-17T00:29:49.087Z,23.30
2022-12-17T00:32:39.997Z,21.98
2022-12-17T00:35:29.286Z,22.60
2022-12-17T00:38:21.679Z,21.40
2022-12-17T00:41:14.835Z,21.33
2022-12-17T00:44:03.758Z,22.40
2022-12-17T00:46:52.694Z,20.42
2022-12-17T00:49:41.530Z,20.23
2022-12-17T00:52:30.741Z,20.55
2022-12-17T00:55:24.170Z,20.38
2022-12-17T00:58:15.645Z,20.73
2022-12-17T01:01:05.694Z,20.70
2022-12-17T01:03:54.460Z,19.27
2022-12-17T01:06:43.994Z,20.17
2022-12-17T01:12:35.581Z,18.40
2022-12-17T01:15:24.489Z,19.45
2022-12-17T01:18:16.838Z,18.83
2022-12-17T01:21:05.761Z,17.85
2022-12-17T01:23:54.941Z,18.63
2022-12-17T01:26:52.225Z,18.67
2022-12-17T01:29:41.171Z,19.98
2022-12-17T01:32:31.631Z,18.25
2022-12-17T01:35:23.364Z,16.95
2022-12-17T01:38:12.907Z,18.38
2022-12-17T01:41:01.491Z,17.58
2022-12-17T01:43:53.350Z,17.40
2022-12-17T01:46:42.893Z,18.00
2022-12-17T01:49:33.271Z,18.02
2022-12-17T01:52:22.395Z,17.83
2022-12-17T01:55:11.296Z,17.20
2022-12-17T01:58:00.419Z,17.15
2022-12-17T02:00:49.041Z,16.70
2022-12-17T02:04:01.339Z,17.00
2022-12-17T02:06:56.875Z,15.80
2022-12-17T02:09:57.900Z,15.93
2022-12-17T02:16:46.665Z,15.48
2022-12-17T02:19:37.011Z,16.20
2022-12-17T02:22:52.707Z,15.05
2022-12-17T02:26:03.131Z,15.20
2022-12-17T02:28:55.692Z,15.07
2022-12-17T02:31:45.844Z,15.32
2022-12-17T02:34:35.793Z,14.07
2022-12-17T02:40:27.339Z,15.55
2022-12-17T02:43:17.310Z,13.88
2022-12-17T02:46:09.073Z,13.80
2022-12-17T02:48:57.985Z,13.40
2022-12-17T02:51:48.148Z,14.52
2022-12-17T02:54:37.302Z,13.73
2022-12-17T02:57:26.752Z,14.00
2022-12-17T03:00:16.716Z,13.35
2022-12-17T03:03:25.008Z,13.25
2022-12-17T03:06:15.112Z,12.07
2022-12-17T03:09:04.424Z,12.90
2022-12-17T03:11:53.354Z,12.18
2022-12-17T03:14:48.947Z,11.68
2022-12-17T03:17:38.389Z,12.32
2022-12-17T03:20:27.533Z,12.07
2022-12-17T03:23:28.418Z,11.80
2022-12-17T03:26:21.375Z,11.48
2022-12-17T03:29:26.282Z,10.43
2022-12-17T03:32:15.617Z,10.77
2022-12-17T03:35:07.144Z,11.77
2022-12-17T03:37:55.644Z,10.85
2022-12-17T03:40:44.659Z,10.55
2022-12-17T03:43:37.055Z,9.88
2022-12-17T03:46:26.580Z,10.98
2022-12-17T03:49:15.460Z,11.35
2022-12-17T03:52:03.996Z,10.18
2022-12-17T03:54:55.670Z,10.52
2022-12-17T03:57:48.952Z,10.43
2022-12-17T04:00:48.708Z,10.38
2022-12-17T04:03:37.879Z,10.25
2022-12-17T04:06:26.785Z,9.80
2022-12-17T04:09:15.359Z,9.57
2022-12-17T04:12:06.953Z,10.52
2022-12-17T04:14:55.495Z,10.63
2022-12-17T04:17:44.203Z,10.45
2022-12-17T04:20:33.185Z,9.88
2022-12-17T04:23:21.763Z,10.25
2022-12-17T04:26:10.577Z,9.85
2022-12-17T04:28:59.128Z,9.40
2022-12-17T04:31:47.694Z,8.48
2022-12-17T04:34:37.786Z,9.15
2022-12-17T04:37:27.119Z,8.95
2022-12-17T04:40:15.973Z,9.57
2022-12-17T04:43:04.155Z,8.70
2022-12-17T04:45:56.714Z,8.95
2022-12-17T04:48:52.426Z,8.95
2022-12-17T04:51:41.641Z,8.98
2022-12-17T04:54:31.852Z,9.43
2022-12-17T04:57:22.007Z,8.32
2022-12-17T05:00:15.597Z,9.02
2022-12-17T05:03:04.287Z,8.85
2022-12-17T05:08:54.626Z,8.75
2022-12-17T05:11:44.681Z,8.57
2022-12-17T05:14:33.370Z,8.48
2022-12-17T05:17:23.897Z,8.05
2022-12-17T05:29:05.527Z,8.77
2022-12-17T05:31:54.230Z,8.93
2022-12-17T05:34:42.867Z,7.75
2022-12-17T05:37:31.807Z,8.55
2022-12-17T05:40:21.935Z,8.80
2022-12-17T05:43:16.938Z,8.65
2022-12-17T05:46:11.979Z,7.78
2022-12-17T05:49:00.842Z,8.20
2022-12-17T05:51:49.607Z,8.27
2022-12-17T05:54:38.065Z,7.47
2022-12-17T06:00:29.611Z,7.15
2022-12-17T06:03:22.976Z,8.00
2022-12-17T06:06:16.526Z,8.32
2022-12-17T06:09:05.432Z,7.45
2022-12-17T06:11:57.918Z,7.75
2022-12-17T06:14:56.737Z,7.35
2022-12-17T06:20:36.977Z,7.03
2022-12-17T06:23:29.305Z,8.05
2022-12-17T06:26:19.351Z,7.30
2022-12-17T06:29:11.768Z,7.28
2022-12-17T06:32:01.209Z,8.10
2022-12-17T06:34:49.800Z,7.43
2022-12-17T06:37:44.073Z,8.57
2022-12-17T06:40:32.903Z,7.30
2022-12-17T06:43:23.448Z,7.25
2022-12-17T06:46:13.682Z,7.07
2022-12-17T06:49:04.479Z,7.68
2022-12-17T06:51:53.407Z,7.38
2022-12-17T06:54:43.400Z,7.95
2022-12-17T06:57:46.188Z,8.50
2022-12-17T07:00:37.936Z,7.32
2022-12-17T07:03:26.475Z,6.95
2022-12-17T07:06:23.598Z,7.90
2022-12-17T07:09:14.601Z,7.65
2022-12-17T07:12:03.348Z,7.80
2022-12-17T07:14:52.119Z,7.65
2022-12-17T07:17:43.853Z,7.30
2022-12-17T07:20:34.634Z,7.55
2022-12-17T07:23:24.298Z,7.00
2022-12-17T07:26:13.041Z,7.53
2022-12-17T07:29:03.803Z,7.25
2022-12-17T07:31:52.781Z,7.40
2022-12-17T07:34:41.562Z,7.97
2022-12-17T07:37:30.070Z,7.80
2022-12-17T07:40:19.977Z,7.28
2022-12-17T07:46:12.811Z,7.40
2022-12-17T07:49:01.375Z,7.25
2022-12-17T07:51:49.805Z,8.60
2022-12-17T07:54:38.332Z,7.68
2022-12-17T07:57:28.420Z,8.25
2022-12-17T08:00:18.677Z,8.23
2022-12-17T08:03:09.117Z,8.30
2022-12-17T08:06:18.836Z,7.72
2022-12-17T08:09:07.703Z,7.75
2022-12-17T08:11:56.329Z,7.43
2022-12-17T08:14:46.937Z,7.93
2022-12-17T08:17:35.616Z,7.35
2022-12-17T08:20:25.131Z,7.32
2022-12-17T08:23:20.756Z,7.60
2022-12-17T08:26:15.572Z,7.85
2022-12-17T08:29:04.350Z,8.13
2022-12-17T08:31:52.736Z,17.20
2022-12-17T08:34:54.862Z,59.42
2022-12-17T08:37:45.203Z,26.05
2022-12-17T08:40:34.002Z,19.60
2022-12-17T08:43:31.379Z,21.45
2022-12-17T08:46:22.567Z,21.45
2022-12-17T08:49:11.122Z,20.45
2022-12-17T08:52:00.200Z,18.45
2022-12-17T08:54:50.256Z,18.95
2022-12-17T08:57:38.983Z,17.83
2022-12-17T09:00:28.241Z,17.75
2022-12-17T09:03:22.608Z,17.08
2022-12-17T09:06:15.372Z,17.48
2022-12-17T09:09:07.165Z,16.00
2022-12-17T09:11:55.951Z,17.55
2022-12-17T09:14:45.020Z,22.58
2022-12-17T09:17:33.816Z,18.33
2022-12-17T09:20:27.670Z,16.88
2022-12-17T09:23:19.473Z,16.48
2022-12-17T09:26:16.143Z,15.40
2022-12-17T09:29:05.629Z,14.85
2022-12-17T09:31:54.568Z,15.02
2022-12-17T09:34:44.971Z,15.57
2022-12-17T09:37:33.351Z,14.70
2022-12-17T09:40:24.934Z,14.95
2022-12-17T09:43:25.494Z,13.82
2022-12-17T09:46:45.903Z,14.85
2022-12-17T09:49:44.587Z,14.30
2022-12-17T09:52:46.647Z,14.60
2022-12-17T09:58:43.618Z,13.82
2022-12-17T10:01:49.803Z,14.52
2022-12-17T10:04:47.685Z,13.55
2022-12-17T10:07:40.142Z,14.50
2022-12-17T10:10:39.018Z,13.63
2022-12-17T10:13:40.582Z,12.95
2022-12-17T10:16:46.885Z,12.98
2022-12-17T10:19:55.699Z,13.65
2022-12-17T10:22:44.466Z,12.98
2022-12-17T10:28:52.102Z,14.30
2022-12-17T10:31:43.570Z,13.97
2022-12-17T10:34:40.997Z,13.82
2022-12-17T10:37:51.269Z,13.73
2022-12-17T10:41:06.209Z,13.68
2022-12-17T10:43:59.820Z,15.32
2022-12-17T10:46:51.146Z,14.77
2022-12-17T10:49:44.410Z,15.27
2022-12-17T10:52:50.635Z,15.35
2022-12-17T10:56:08.829Z,14.30
2022-12-17T11:02:07.841Z,15.05
2022-12-17T11:05:11.508Z,14.77
2022-12-17T11:08:03.447Z,14.90
2022-12-17T11:11:03.761Z,14.43
2022-12-17T11:13:59.983Z,15.68
2022-12-17T11:17:10.103Z,13.85
2022-12-17T11:20:12.652Z,13.88
2022-12-17T11:23:09.252Z,14.07
2022-12-17T11:32:53.872Z,14.48
2022-12-17T11:35:57.045Z,13.55
2022-12-17T11:39:00.708Z,13.90
2022-12-17T11:42:13.942Z,14.30
2022-12-17T11:45:28.452Z,14.45
2022-12-17T11:48:35.028Z,14.35
2022-12-17T11:51:43.888Z,13.48
2022-12-17T11:54:59.200Z,14.93
2022-12-17T12:01:17.969Z,13.98
2022-12-17T12:04:19.046Z,14.77
2022-12-17T12:07:13.398Z,14.88
2022-12-17T12:10:15.105Z,14.90
2022-12-17T12:13:57.448Z,14.00
2022-12-17T12:17:05.205Z,14.18
2022-12-17T12:20:19.716Z,13.93
2022-12-17T12:23:17.179Z,13.70
2022-12-17T12:26:22.832Z,13.65
2022-12-17T12:29:46.596Z,13.60
2022-12-17T12:32:47.726Z,14.40
2022-12-17T12:35:46.697Z,13.85
2022-12-17T12:38:46.662Z,13.98
2022-12-17T12:42:10.070Z,13.60
2022-12-17T12:45:23.371Z,12.63
2022-12-17T12:51:36.404Z,12.77
2022-12-17T12:54:52.959Z,12.90
2022-12-17T12:57:46.939Z,12.05
2022-12-17T13:01:05.445Z,12.50
2022-12-17T13:04:11.029Z,12.50
2022-12-17T13:06:52.950Z,12.68
2022-12-17T13:09:34.104Z,11.93
2022-12-17T13:12:06.539Z,11.75
2022-12-17T13:14:55.206Z,12.38
2022-12-17T13:17:39.094Z,12.60
2022-12-17T13:21:12.356Z,11.30
2022-12-17T13:23:43.141Z,11.57
2022-12-17T13:26:22.605Z,11.85
2022-12-17T13:29:01.759Z,12.57
2022-12-17T13:31:54.283Z,11.90
2022-12-17T13:35:04.426Z,12.50
2022-12-17T13:37:54.531Z,11.20
2022-12-17T13:40:43.439Z,11.85
2022-12-17T13:43:26.016Z,11.30
2022-12-17T13:45:58.256Z,11.20
2022-12-17T13:48:30.417Z,11.27
2022-12-17T13:51:06.615Z,12.45
2022-12-17T13:53:39.741Z,11.48
2022-12-17T13:56:12.422Z,10.80
2022-12-17T13:58:48.181Z,11.63
2022-12-17T14:01:50.097Z,11.00
2022-12-17T14:04:28.459Z,11.13
2022-12-17T14:07:03.638Z,11.50
2022-12-17T14:09:45.417Z,10.93
2022-12-17T14:12:24.068Z,10.38
2022-12-17T14:15:00.902Z,11.27
2022-12-17T14:17:54.513Z,10.95
2022-12-17T14:20:37.533Z,10.85
2022-12-17T14:23:45.479Z,11.35
2022-12-17T14:26:16.203Z,11.10
2022-12-17T14:28:55.462Z,10.55
2022-12-17T14:31:29.470Z,10.77
2022-12-17T14:34:08.642Z,11.00
2022-12-17T14:36:42.267Z,10.80
2022-12-17T14:39:40.725Z,11.40
2022-12-17T14:42:34.837Z,11.20
2022-12-17T14:45:23.718Z,10.43
2022-12-17T14:48:02.360Z,9.95
2022-12-17T14:50:39.895Z,10.05
2022-12-17T14:53:28.254Z,10.80
2022-12-17T14:56:00.277Z,10.10
2022-12-17T14:58:32.719Z,10.27
2022-12-17T15:01:07.140Z,10.82
2022-12-17T15:03:49.748Z,10.38
2022-12-17T15:06:22.189Z,11.35
2022-12-17T15:09:07.431Z,11.07
2022-12-17T15:11:44.020Z,10.65
2022-12-17T15:14:19.586Z,9.88
2022-12-17T15:19:33.202Z,10.45
2022-12-17T15:22:04.718Z,11.00
2022-12-17T15:24:35.237Z,10.40
2022-12-17T15:27:07.122Z,11.13
2022-12-17T15:29:42.462Z,10.10
2022-12-17T15:32:33.213Z,10.85
2022-12-17T15:35:10.281Z,11.00
2022-12-17T15:37:40.852Z,10.07
2022-12-17T15:40:14.688Z,10.80
2022-12-17T15:43:06.491Z,10.85
2022-12-17T15:45:37.624Z,10.70
2022-12-17T15:48:14.449Z,11.50
2022-12-17T15:50:46.576Z,10.35
2022-12-17T15:53:17.058Z,10.65
2022-12-17T15:55:47.393Z,10.50
2022-12-17T15:58:19.067Z,11.40
2022-12-17T16:00:53.286Z,10.38
2022-12-17T16:03:24.301Z,10.95
2022-12-17T16:05:54.906Z,11.10
2022-12-17T16:08:25.777Z,10.93
2022-12-17T16:10:56.343Z,9.60
2022-12-17T16:13:26.715Z,10.82
2022-12-17T16:16:04.378Z,9.85
2022-12-17T16:18:35.674Z,10.45
2022-12-17T16:21:08.892Z,10.60
2022-12-17T16:23:41.046Z,9.88
2022-12-17T16:26:12.925Z,9.80
2022-12-17T16:28:43.555Z,10.93
2022-12-17T16:31:17.039Z,10.35
2022-12-17T16:33:49.674Z,9.57
2022-12-17T16:36:25.149Z,10.35
2022-12-17T16:38:58.999Z,9.68
2022-12-17T16:41:49.594Z,9.90
2022-12-17T16:44:27.598Z,10.18
2022-12-17T16:46:59.778Z,9.50
2022-12-17T16:49:31.089Z,9.98
2022-12-17T16:52:03.456Z,10.35
2022-12-17T16:54:36.407Z,9.15
2022-12-17T16:57:27.069Z,9.57
2022-12-17T16:59:58.235Z,9.70
2022-12-17T17:02:30.863Z,9.45
2022-12-17T17:05:02.213Z,9.68
2022-12-17T17:07:34.998Z,9.63
2022-12-17T17:10:07.650Z,10.20
2022-12-17T17:12:40.751Z,9.20
2022-12-17T17:15:13.500Z,9.52
2022-12-17T17:17:54.219Z,10.15
2022-12-17T17:20:26.876Z,9.35
2022-12-17T17:22:57.711Z,9.15
2022-12-17T17:25:57.658Z,10.07
2022-12-17T17:28:25.991Z,9.35
2022-12-17T17:31:02.298Z,9.50
2022-12-17T17:36:23.615Z,10.10
2022-12-17T17:39:00.371Z,10.07
2022-12-17T17:41:32.408Z,9.00
2022-12-17T17:44:09.814Z,9.32
2022-12-17T17:46:42.618Z,9.45
2022-12-17T17:49:13.851Z,8.82
2022-12-17T17:54:41.486Z,9.15
2022-12-17T17:57:12.970Z,9.63
2022-12-17T17:59:43.686Z,9.43
2022-12-17T18:02:15.255Z,9.98
2022-12-17T18:04:45.758Z,9.80
2022-12-17T18:07:25.103Z,9.30
2022-12-17T18:09:57.777Z,9.48
2022-12-17T18:12:47.536Z,9.45
2022-12-17T18:15:18.580Z,9.73
2022-12-17T18:17:53.010Z,9.75
2022-12-17T18:20:23.327Z,9.75
2022-12-17T18:22:53.700Z,10.07
2022-12-17T18:25:24.120Z,9.30
2022-12-17T18:28:14.107Z,9.02
2022-12-17T18:30:45.421Z,10.10
2022-12-17T18:33:16.095Z,10.38
2022-12-17T18:35:47.096Z,9.85
2022-12-17T18:38:38.296Z,9.13
2022-12-17T18:41:56.084Z,10.38
2022-12-17T18:44:26.806Z,9.32
2022-12-17T18:46:57.238Z,10.18
2022-12-17T18:49:29.044Z,9.57
2022-12-17T18:51:59.805Z,10.32
2022-12-17T18:54:33.098Z,10.00
2022-12-17T18:57:04.986Z,10.40
2022-12-17T18:59:36.079Z,10.52
2022-12-17T19:02:11.476Z,10.00
2022-12-17T19:04:42.434Z,9.23
2022-12-17T19:07:12.970Z,10.18
2022-12-17T19:09:44.717Z,9.55
2022-12-17T19:12:15.130Z,9.68
2022-12-17T19:14:45.451Z,9.93
2022-12-17T19:17:17.026Z,10.75
2022-12-17T19:19:47.319Z,10.13
2022-12-17T19:22:17.812Z,9.35
2022-12-17T19:24:48.477Z,10.60
2022-12-17T19:27:19.034Z,10.02
2022-12-17T19:29:50.127Z,9.65
2022-12-17T19:32:20.720Z,9.18
2022-12-17T19:34:50.986Z,9.80
2022-12-17T19:37:21.492Z,9.55
2022-12-17T19:39:51.880Z,9.32
2022-12-17T19:42:36.569Z,9.52
2022-12-17T19:45:08.069Z,10.80
2022-12-17T19:50:21.799Z,10.30
2022-12-17T19:52:52.231Z,10.40
2022-12-17T19:55:22.766Z,9.98
2022-12-17T19:57:53.096Z,10.43
2022-12-17T20:00:28.011Z,9.10
2022-12-17T20:02:59.199Z,9.48
2022-12-17T20:05:30.541Z,9.95
2022-12-17T20:08:00.874Z,10.20
2022-12-17T20:10:31.236Z,10.55
2022-12-17T20:13:02.809Z,10.48
2022-12-17T20:15:33.462Z,10.05
2022-12-17T20:18:03.788Z,9.98
2022-12-17T20:20:34.102Z,10.05
2022-12-17T20:23:04.359Z,10.07
2022-12-17T20:25:34.983Z,9.98
2022-12-17T20:28:05.361Z,9.45
2022-12-17T20:30:35.999Z,9.60
2022-12-17T20:33:06.583Z,11.18
2022-12-17T20:35:41.749Z,9.60
2022-12-17T20:38:12.392Z,10.40
2022-12-17T20:40:43.392Z,10.23
2022-12-17T20:43:14.356Z,10.32
2022-12-17T20:45:56.545Z,10.07
2022-12-17T20:48:27.416Z,9.88
2022-12-17T20:50:58.034Z,9.63
2022-12-17T20:53:29.907Z,10.45
2022-12-17T20:56:08.468Z,10.60
2022-12-17T20:58:40.504Z,9.90
2022-12-17T21:01:14.295Z,9.60
2022-12-17T21:03:45.287Z,9.82
2022-12-17T21:06:18.134Z,10.98
2022-12-17T21:08:50.785Z,9.77
2022-12-17T21:11:25.019Z,10.73
2022-12-17T21:13:56.312Z,10.20
2022-12-17T21:16:30.422Z,9.25
2022-12-17T21:19:02.635Z,10.02
2022-12-17T21:21:36.797Z,10.38
2022-12-17T21:24:08.065Z,10.20
2022-12-17T21:26:41.919Z,10.30
2022-12-17T21:31:49.800Z,9.55
2022-12-17T21:37:09.637Z,9.50
2022-12-17T21:39:40.442Z,10.15
2022-12-17T21:42:28.934Z,10.65
2022-12-17T21:44:59.328Z,9.80
2022-12-17T21:47:29.956Z,10.32
2022-12-17T21:50:00.362Z,9.95
2022-12-17T21:52:30.727Z,10.18
2022-12-17T21:55:01.325Z,11.30
2022-12-17T21:57:31.966Z,9.75
2022-12-17T22:00:02.571Z,9.70
2022-12-17T22:02:34.859Z,10.02
2022-12-17T22:05:06.461Z,10.65
2022-12-17T22:07:44.944Z,11.25
2022-12-17T22:10:37.191Z,10.32
2022-12-17T22:13:26.720Z,10.45
2022-12-17T22:15:57.466Z,10.35
2022-12-17T22:18:28.440Z,10.35
2022-12-17T22:21:00.801Z,9.65
2022-12-17T22:23:31.481Z,10.52
2022-12-17T22:26:02.219Z,10.98
2022-12-17T22:28:32.746Z,10.60
2022-12-17T22:31:25.547Z,10.00
2022-12-17T22:34:23.818Z,10.02
2022-12-17T22:39:46.710Z,10.70
2022-12-17T22:44:36.666Z,9.67
2022-12-17T22:45:30.070Z,10.02
2022-12-17T22:50:51.211Z,9.93
2022-12-17T22:53:28.150Z,9.82
2022-12-17T22:56:19.693Z,10.77
2022-12-17T22:58:58.184Z,10.23
2022-12-17T23:01:28.950Z,10.20
2022-12-17T23:04:01.059Z,15.80
2022-12-17T23:06:32.011Z,22.95
2022-12-17T23:09:02.518Z,28.65
2022-12-17T23:11:33.162Z,30.95
2022-12-17T23:14:06.538Z,30.95
2022-12-17T23:16:42.423Z,30.48
2022-12-17T23:19:33.148Z,28.27
2022-12-17T23:22:03.840Z,28.05
2022-12-17T23:24:34.538Z,25.50
2022-12-17T23:27:05.062Z,26.05
2022-12-17T23:29:36.354Z,27.60
2022-12-17T23:32:07.170Z,26.73
2022-12-17T23:34:37.661Z,24.58
2022-12-17T23:37:08.699Z,25.52
2022-12-17T23:39:39.290Z,25.63
2022-12-17T23:42:09.831Z,24.58
2022-12-17T23:44:40.172Z,23.63
2022-12-17T23:49:56.717Z,23.40
2022-12-17T23:52:27.598Z,22.13
2022-12-17T23:54:59.411Z,21.33
2022-12-17T23:57:30.713Z,21.20
